createdAt,value
2023-03-16T00:01:42.794Z,101451.00
2023-03-16T00:04:09.459Z,101452.06
2023-03-16T00:06:36.674Z,101462.63
2023-03-16T00:09:04.144Z,101463.13
2023-03-16T00:11:30.704Z,101469.31
2023-03-16T00:13:58.561Z,101459.66
2023-03-16T00:16:25.148Z,101453.66
2023-03-16T00:18:51.662Z,101459.03
2023-03-16T00:21:18.132Z,101459.59
2023-03-16T00:23:44.639Z,101460.34
2023-03-16T00:26:13.073Z,101458.78
2023-03-16T00:28:39.989Z,101462.00
2023-03-16T00:31:08.865Z,101454.19
2023-03-16T00:33:35.378Z,101455.56
2023-03-16T00:36:02.796Z,101460.69
2023-03-16T00:38:35.047Z,101454.16
2023-03-16T00:41:06.658Z,101447.97
2023-03-16T00:43:41.026Z,101458.47
2023-03-16T00:46:09.308Z,101470.78
2023-03-16T00:48:38.104Z,101461.94
2023-03-16T00:51:07.318Z,101468.94
2023-03-16T00:53:34.873Z,101470.06
2023-03-16T00:56:05.478Z,101470.53
2023-03-16T00:58:37.377Z,101470.34
2023-03-16T01:01:09.011Z,101472.16
2023-03-16T01:03:36.207Z,101480.84
2023-03-16T01:06:15.191Z,101480.75
2023-03-16T01:08:42.021Z,101464.56
2023-03-16T01:11:11.550Z,101476.19
2023-03-16T01:13:38.903Z,101471.13
2023-03-16T01:16:06.678Z,101475.72
2023-03-16T01:18:35.992Z,101471.63
2023-03-16T01:21:04.289Z,101470.78
2023-03-16T01:23:31.525Z,101470.06
2023-03-16T01:25:59.446Z,101474.06
2023-03-16T01:28:28.252Z,101479.75
2023-03-16T01:30:59.060Z,101475.19
2023-03-16T01:33:26.802Z,101473.59
2023-03-16T01:35:59.101Z,101470.81
2023-03-16T01:38:26.140Z,101475.06
2023-03-16T01:40:54.260Z,101473.00
2023-03-16T01:43:23.984Z,101473.81
2023-03-16T01:46:05.790Z,101478.91
2023-03-16T01:48:54.533Z,101478.06
2023-03-16T01:51:38.322Z,101474.00
2023-03-16T01:54:14.487Z,101468.59
2023-03-16T01:57:06.402Z,101475.31
2023-03-16T01:59:53.130Z,101474.56
2023-03-16T02:02:23.860Z,101470.81
2023-03-16T02:05:07.022Z,101467.50
2023-03-16T02:07:40.198Z,101469.44
2023-03-16T02:10:07.585Z,101466.97
2023-03-16T02:12:34.003Z,101472.38
2023-03-16T02:15:00.395Z,101478.59
2023-03-16T02:17:30.896Z,101463.72
2023-03-16T02:20:16.221Z,101469.38
2023-03-16T02:22:48.880Z,101471.63
2023-03-16T02:25:18.331Z,101472.84
2023-03-16T02:27:56.712Z,101472.84
2023-03-16T02:30:23.389Z,101476.06
2023-03-16T02:32:53.687Z,101471.19
2023-03-16T02:35:21.074Z,101471.91
2023-03-16T02:37:47.494Z,101472.34
2023-03-16T02:40:21.420Z,101470.66
2023-03-16T02:43:02.723Z,101472.25
2023-03-16T02:45:34.583Z,101472.19
2023-03-16T02:48:05.444Z,101476.47
2023-03-16T02:50:31.868Z,101472.19
2023-03-16T02:52:58.288Z,101469.97
2023-03-16T02:55:24.714Z,101468.50
2023-03-16T02:57:52.162Z,101474.06
2023-03-16T03:00:19.282Z,101470.78
2023-03-16T03:02:46.127Z,101476.00
2023-03-16T03:05:12.761Z,101487.75
2023-03-16T03:07:39.272Z,101479.72
2023-03-16T03:10:06.945Z,101482.72
2023-03-16T03:12:34.184Z,101491.78
2023-03-16T03:15:00.724Z,101493.94
2023-03-16T03:17:30.100Z,101489.59
2023-03-16T03:20:02.369Z,101485.31
2023-03-16T03:22:28.863Z,101484.47
2023-03-16T03:24:55.338Z,101487.94
2023-03-16T03:27:22.450Z,101488.66
2023-03-16T03:29:48.948Z,101483.75
2023-03-16T03:32:15.394Z,101488.19
2023-03-16T03:34:42.520Z,101491.63
2023-03-16T03:37:09.234Z,101494.50
2023-03-16T03:39:35.914Z,101499.31
2023-03-16T03:42:03.029Z,101504.44
2023-03-16T03:44:29.531Z,101501.16
2023-03-16T03:46:55.981Z,101503.34
2023-03-16T03:49:22.393Z,101505.03
2023-03-16T03:51:48.946Z,101506.34
2023-03-16T03:54:15.429Z,101503.03
2023-03-16T03:56:41.871Z,101505.50
2023-03-16T03:59:08.352Z,101506.66
2023-03-16T04:01:34.764Z,101507.41
2023-03-16T04:04:01.173Z,101515.00
2023-03-16T04:06:27.860Z,101515.91
2023-03-16T04:08:54.446Z,101510.84
2023-03-16T04:11:21.381Z,101516.59
2023-03-16T04:13:47.826Z,101517.59
2023-03-16T04:16:16.287Z,101521.38
2023-03-16T04:18:42.819Z,101521.00
2023-03-16T04:21:15.767Z,101528.94
2023-03-16T04:23:42.490Z,101527.72
2023-03-16T04:26:09.173Z,101528.41
2023-03-16T04:28:35.598Z,101523.06
2023-03-16T04:31:04.580Z,101526.59
2023-03-16T04:33:32.302Z,101517.94
2023-03-16T04:35:59.285Z,101518.00
2023-03-16T04:38:25.904Z,101522.13
2023-03-16T04:40:52.297Z,101521.09
2023-03-16T04:43:18.688Z,101521.28
2023-03-16T04:45:45.141Z,101523.50
2023-03-16T04:48:11.917Z,101524.66
2023-03-16T04:50:38.383Z,101527.47
2023-03-16T04:53:04.933Z,101532.66
2023-03-16T04:55:31.518Z,101527.94
2023-03-16T04:57:58.296Z,101539.09
2023-03-16T05:00:25.610Z,101520.81
2023-03-16T05:02:52.399Z,101525.19
2023-03-16T05:05:19.522Z,101531.97
2023-03-16T05:07:46.067Z,101529.09
2023-03-16T05:10:15.824Z,101531.25
2023-03-16T05:12:42.589Z,101535.44
2023-03-16T05:15:09.615Z,101533.78
2023-03-16T05:17:36.097Z,101531.88
2023-03-16T05:20:15.858Z,101543.00
2023-03-16T05:22:44.702Z,101542.47
2023-03-16T05:25:15.073Z,101531.25
2023-03-16T05:27:46.329Z,101537.63
2023-03-16T05:30:14.009Z,101534.94
2023-03-16T05:32:40.559Z,101538.69
2023-03-16T05:35:07.400Z,101543.72
2023-03-16T05:37:37.985Z,101540.06
2023-03-16T05:40:16.900Z,101547.13
2023-03-16T05:42:45.901Z,101546.84
2023-03-16T05:45:14.556Z,101557.38
2023-03-16T05:47:42.011Z,101552.69
2023-03-16T05:50:11.146Z,101563.00
2023-03-16T05:52:38.780Z,101561.03
2023-03-16T05:55:06.975Z,101561.63
2023-03-16T05:57:34.192Z,101573.34
2023-03-16T06:00:02.210Z,101570.09
2023-03-16T06:02:28.871Z,101565.59
2023-03-16T06:04:55.355Z,101570.53
2023-03-16T06:07:21.744Z,101564.13
2023-03-16T06:09:48.399Z,101559.78
2023-03-16T06:12:14.874Z,101564.38
2023-03-16T06:14:41.336Z,101560.84
2023-03-16T06:17:07.866Z,101571.34
2023-03-16T06:19:34.268Z,101573.53
2023-03-16T06:22:00.850Z,101570.31
2023-03-16T06:24:27.448Z,101581.09
2023-03-16T06:26:53.875Z,101578.91
2023-03-16T06:29:20.270Z,101576.91
2023-03-16T06:31:46.819Z,101584.13
2023-03-16T06:34:13.215Z,101583.78
2023-03-16T06:36:39.734Z,101585.25
2023-03-16T06:39:06.352Z,101589.63
2023-03-16T06:41:32.833Z,101586.94
2023-03-16T06:43:59.298Z,101586.81
2023-03-16T06:46:25.890Z,101597.22
2023-03-16T06:48:52.374Z,101586.63
2023-03-16T06:51:18.936Z,101598.63
2023-03-16T06:53:45.497Z,101592.22
2023-03-16T06:56:12.224Z,101596.31
2023-03-16T06:58:38.585Z,101598.25
2023-03-16T07:01:05.715Z,101603.28
2023-03-16T07:03:32.143Z,101611.63
2023-03-16T07:05:58.613Z,101610.69
2023-03-16T07:08:25.071Z,101608.50
2023-03-16T07:10:52.106Z,101614.69
2023-03-16T07:13:18.739Z,101611.50
2023-03-16T07:15:45.182Z,101619.84
2023-03-16T07:18:14.370Z,101619.59
2023-03-16T07:20:42.049Z,101631.50
2023-03-16T07:23:08.683Z,101621.53
2023-03-16T07:25:35.158Z,101628.56
2023-03-16T07:28:01.786Z,101623.47
2023-03-16T07:30:28.373Z,101626.75
2023-03-16T07:32:55.078Z,101628.41
2023-03-16T07:35:21.983Z,101626.50
2023-03-16T07:37:48.463Z,101631.13
2023-03-16T07:40:15.363Z,101621.44
2023-03-16T07:42:42.377Z,101621.69
2023-03-16T07:45:09.725Z,101623.59
2023-03-16T07:47:36.532Z,101626.56
2023-03-16T07:50:03.073Z,101628.72
2023-03-16T07:52:29.510Z,101626.56
2023-03-16T07:54:56.008Z,101633.84
2023-03-16T07:57:22.633Z,101633.84
2023-03-16T07:59:49.042Z,101639.50
2023-03-16T08:02:18.324Z,101643.31
2023-03-16T08:04:45.632Z,101646.28
2023-03-16T08:07:14.266Z,101640.84
2023-03-16T08:09:41.274Z,101657.06
2023-03-16T08:12:09.172Z,101660.56
2023-03-16T08:14:36.756Z,101656.50
2023-03-16T08:17:05.109Z,101664.09
2023-03-16T08:19:32.415Z,101670.56
2023-03-16T08:22:02.083Z,101665.09
2023-03-16T08:24:29.712Z,101673.19
2023-03-16T08:26:57.444Z,101684.00
2023-03-16T08:29:25.196Z,101685.59
2023-03-16T08:31:57.815Z,101683.66
2023-03-16T08:34:24.858Z,101689.34
2023-03-16T08:36:51.312Z,101694.22
2023-03-16T08:39:17.824Z,101691.44
2023-03-16T08:41:45.757Z,101699.78
2023-03-16T08:44:12.977Z,101699.50
2023-03-16T08:46:40.605Z,101704.63
2023-03-16T08:49:07.188Z,101700.28
2023-03-16T08:51:33.684Z,101704.28
2023-03-16T08:54:00.145Z,101712.13
2023-03-16T08:56:26.616Z,101715.38
2023-03-16T08:58:53.094Z,101718.84
2023-03-16T09:01:20.323Z,101716.63
2023-03-16T09:03:47.310Z,101717.66
2023-03-16T09:06:17.033Z,101724.66
2023-03-16T09:08:45.350Z,101719.97
2023-03-16T09:11:15.695Z,101719.47
2023-03-16T09:13:43.148Z,101726.16
2023-03-16T09:16:11.981Z,101726.13
2023-03-16T09:18:38.717Z,101728.69
2023-03-16T09:21:07.765Z,101731.16
2023-03-16T09:23:37.429Z,101738.16
2023-03-16T09:26:07.482Z,101741.41
2023-03-16T09:28:35.993Z,101736.75
2023-03-16T09:31:03.279Z,101745.13
2023-03-16T09:33:30.251Z,101739.13
2023-03-16T09:35:57.493Z,101742.06
2023-03-16T09:38:26.341Z,101740.72
2023-03-16T09:41:08.800Z,101752.56
2023-03-16T09:43:57.126Z,101744.94
2023-03-16T09:46:36.474Z,101740.34
2023-03-16T09:49:03.708Z,101743.78
2023-03-16T09:51:43.460Z,101753.41
2023-03-16T09:54:22.224Z,101753.91
2023-03-16T09:57:26.231Z,101751.47
2023-03-16T10:00:11.129Z,101758.66
2023-03-16T10:03:15.116Z,101748.59
2023-03-16T10:05:42.027Z,101747.66
2023-03-16T10:08:12.678Z,101749.06
2023-03-16T10:10:46.891Z,101744.16
2023-03-16T10:13:27.621Z,101750.84
2023-03-16T10:15:56.742Z,101747.78
2023-03-16T10:18:29.274Z,101749.38
2023-03-16T10:20:58.006Z,101742.81
2023-03-16T10:23:26.023Z,101756.31
2023-03-16T10:25:56.587Z,101750.31
2023-03-16T10:28:26.215Z,101754.28
2023-03-16T10:30:58.990Z,101752.28
2023-03-16T10:33:27.041Z,101750.41
2023-03-16T10:36:10.173Z,101742.75
2023-03-16T10:38:55.213Z,101750.63
2023-03-16T10:41:23.780Z,101748.44
2023-03-16T10:43:51.849Z,101756.72
2023-03-16T10:46:18.908Z,101748.28
2023-03-16T10:49:00.009Z,101750.69
2023-03-16T10:51:32.577Z,101759.00
2023-03-16T10:54:16.201Z,101746.97
2023-03-16T10:56:42.758Z,101753.56
2023-03-16T10:59:15.217Z,101754.81
2023-03-16T11:01:48.836Z,101744.53
2023-03-16T11:04:17.901Z,101750.50
2023-03-16T11:06:58.273Z,101745.06
2023-03-16T11:09:32.938Z,101737.94
2023-03-16T11:12:00.812Z,101740.13
2023-03-16T11:14:28.617Z,101737.97
2023-03-16T11:17:09.389Z,101735.56
2023-03-16T11:20:01.066Z,101744.22
2023-03-16T11:22:30.057Z,101735.63
2023-03-16T11:24:56.416Z,101735.63
2023-03-16T11:27:24.515Z,101735.41
2023-03-16T11:30:22.071Z,101738.34
2023-03-16T11:32:51.139Z,101732.69
2023-03-16T11:35:19.543Z,101729.97
2023-03-16T11:37:58.747Z,101733.50
2023-03-16T11:40:47.280Z,101721.22
2023-03-16T11:43:28.705Z,101732.53
2023-03-16T11:46:03.911Z,101723.44
2023-03-16T11:48:48.273Z,101726.09
2023-03-16T11:51:42.296Z,101732.84
2023-03-16T11:54:26.777Z,101725.84
2023-03-16T11:56:59.438Z,101729.28
2023-03-16T11:59:32.166Z,101726.16
2023-03-16T12:02:17.049Z,101715.69
2023-03-16T12:05:28.800Z,101719.22
2023-03-16T12:08:01.513Z,101718.41
2023-03-16T12:10:52.854Z,101705.09
2023-03-16T12:13:19.898Z,101710.06
2023-03-16T12:15:53.497Z,101704.91
2023-03-16T12:18:30.357Z,101711.66
2023-03-16T12:21:04.155Z,101704.63
2023-03-16T12:23:36.621Z,101694.75
2023-03-16T12:26:03.748Z,101697.47
2023-03-16T12:28:33.325Z,101701.06
2023-03-16T12:31:10.615Z,101684.44
2023-03-16T12:33:52.923Z,101691.41
2023-03-16T12:36:50.781Z,101690.34
2023-03-16T12:40:05.608Z,101690.22
2023-03-16T12:42:41.540Z,101686.72
2023-03-16T12:45:17.707Z,101675.75
2023-03-16T12:48:00.110Z,101679.19
2023-03-16T12:50:27.231Z,101681.13
2023-03-16T12:52:54.100Z,101665.09
2023-03-16T12:55:24.494Z,101654.72
2023-03-16T12:57:58.778Z,101655.22
2023-03-16T13:00:35.781Z,101653.22
2023-03-16T13:03:03.459Z,101659.47
2023-03-16T13:05:32.840Z,101659.88
2023-03-16T13:08:25.840Z,101653.63
2023-03-16T13:11:05.707Z,101660.19
2023-03-16T13:13:34.098Z,101672.22
2023-03-16T13:16:10.135Z,101668.25
2023-03-16T13:21:41.674Z,101669.50
2023-03-16T13:24:26.036Z,101669.75
2023-03-16T13:27:02.477Z,101668.97
2023-03-16T13:29:31.281Z,101665.34
2023-03-16T13:32:08.736Z,101661.50
2023-03-16T13:34:49.198Z,101664.53
2023-03-16T13:37:19.743Z,101661.91
2023-03-16T13:40:00.261Z,101662.09
2023-03-16T13:42:32.349Z,101665.75
2023-03-16T13:45:07.897Z,101671.13
2023-03-16T13:47:34.452Z,101664.78
2023-03-16T13:50:00.987Z,101664.38
2023-03-16T13:52:30.726Z,101658.47
2023-03-16T13:54:58.883Z,101649.31
2023-03-16T13:57:31.928Z,101667.66
2023-03-16T14:00:15.733Z,101662.22
2023-03-16T14:02:44.304Z,101658.69
2023-03-16T14:05:22.032Z,101660.31
2023-03-16T14:07:51.093Z,101657.69
2023-03-16T14:10:18.685Z,101666.53
2023-03-16T14:12:57.542Z,101656.09
2023-03-16T14:15:28.166Z,101640.13
2023-03-16T14:18:12.305Z,101643.75
2023-03-16T14:20:41.612Z,101637.78
2023-03-16T14:23:36.415Z,101636.19
2023-03-16T14:26:05.675Z,101641.94
2023-03-16T14:28:33.916Z,101646.59
2023-03-16T14:31:11.690Z,101646.00
2023-03-16T14:33:42.962Z,101642.84
2023-03-16T14:36:18.711Z,101628.72
2023-03-16T14:38:48.284Z,101633.28
2023-03-16T14:41:27.961Z,101639.75
2023-03-16T14:43:58.017Z,101631.38
2023-03-16T14:46:53.504Z,101636.53
2023-03-16T14:49:26.141Z,101633.78
2023-03-16T14:51:55.377Z,101625.94
2023-03-16T14:54:23.092Z,101632.25
2023-03-16T14:57:00.783Z,101623.56
2023-03-16T14:59:27.620Z,101614.06
2023-03-16T15:01:55.183Z,101617.22
2023-03-16T15:04:34.460Z,101618.53
2023-03-16T15:07:21.837Z,101616.84
2023-03-16T15:09:50.523Z,101629.34
2023-03-16T15:12:19.556Z,101619.88
2023-03-16T15:15:05.893Z,101625.00
2023-03-16T15:17:32.479Z,101617.91
2023-03-16T15:19:59.181Z,101619.94
2023-03-16T15:22:32.552Z,101623.56
2023-03-16T15:25:00.107Z,101618.94
2023-03-16T15:27:32.999Z,101608.09
2023-03-16T15:29:59.736Z,101612.56
2023-03-16T15:32:26.412Z,101610.19
2023-03-16T15:34:53.017Z,101617.75
2023-03-16T15:37:20.319Z,101614.56
2023-03-16T15:39:47.437Z,101608.41
2023-03-16T15:42:18.761Z,101608.19
2023-03-16T15:44:46.476Z,101604.59
2023-03-16T15:47:13.373Z,101606.09
2023-03-16T15:49:47.286Z,101609.31
2023-03-16T15:52:31.732Z,101614.25
2023-03-16T15:55:03.060Z,101618.28
2023-03-16T15:57:29.507Z,101605.56
2023-03-16T15:59:55.956Z,101605.88
2023-03-16T16:02:29.991Z,101602.84
2023-03-16T16:04:57.321Z,101603.47
2023-03-16T16:07:24.482Z,101598.31
2023-03-16T16:09:51.190Z,101600.34
2023-03-16T16:12:20.301Z,101599.16
2023-03-16T16:14:47.098Z,101602.59
2023-03-16T16:17:24.773Z,101597.91
2023-03-16T16:19:53.590Z,101589.47
2023-03-16T16:22:20.203Z,101584.03
2023-03-16T16:24:47.284Z,101577.00
2023-03-16T16:27:13.830Z,101580.22
2023-03-16T16:29:43.534Z,101570.81
2023-03-16T16:32:22.506Z,101558.94
2023-03-16T16:35:03.307Z,101563.28
2023-03-16T16:37:30.319Z,101562.44
2023-03-16T16:39:56.919Z,101553.38
2023-03-16T16:42:23.405Z,101549.94
2023-03-16T16:44:57.190Z,101547.50
2023-03-16T16:47:23.678Z,101550.53
2023-03-16T16:49:51.082Z,101559.63
2023-03-16T16:52:18.466Z,101548.84
2023-03-16T16:54:45.012Z,101555.50
2023-03-16T16:57:20.088Z,101551.19
2023-03-16T16:59:47.930Z,101551.19
2023-03-16T17:02:27.759Z,101558.72
2023-03-16T17:04:54.330Z,101551.47
2023-03-16T17:07:20.967Z,101550.44
2023-03-16T17:09:47.545Z,101541.50
2023-03-16T17:12:21.669Z,101533.13
2023-03-16T17:14:51.862Z,101534.63
2023-03-16T17:17:18.822Z,101525.84
2023-03-16T17:19:46.593Z,101527.84
2023-03-16T17:22:31.209Z,101533.72
2023-03-16T17:24:58.395Z,101524.94
2023-03-16T17:27:28.408Z,101525.84
2023-03-16T17:29:55.933Z,101517.28
2023-03-16T17:32:22.789Z,101526.66
2023-03-16T17:34:50.168Z,101526.53
2023-03-16T17:37:22.056Z,101523.09
2023-03-16T17:39:48.856Z,101522.38
2023-03-16T17:42:22.412Z,101516.72
2023-03-16T17:44:52.065Z,101500.50
2023-03-16T17:47:21.395Z,101511.28
2023-03-16T17:49:49.023Z,101510.84
2023-03-16T17:52:18.915Z,101507.75
2023-03-16T17:54:46.956Z,101502.31
2023-03-16T17:57:19.866Z,101509.66
2023-03-16T17:59:47.195Z,101504.03
2023-03-16T18:02:43.887Z,101492.25
2023-03-16T18:05:22.069Z,101502.53
2023-03-16T18:07:49.348Z,101483.56
2023-03-16T18:10:22.321Z,101479.66
2023-03-16T18:12:55.008Z,101482.28
2023-03-16T18:15:23.023Z,101480.88
2023-03-16T18:17:50.774Z,101467.28
2023-03-16T18:20:23.059Z,101474.34
2023-03-16T18:22:50.205Z,101490.34
2023-03-16T18:25:35.253Z,101477.56
2023-03-16T18:28:02.577Z,101473.44
2023-03-16T18:30:30.653Z,101468.06
2023-03-16T18:32:58.464Z,101471.09
2023-03-16T18:35:25.322Z,101477.56
2023-03-16T18:37:54.801Z,101477.06
2023-03-16T18:40:23.524Z,101475.75
2023-03-16T18:42:51.091Z,101458.50
2023-03-16T18:45:17.592Z,101462.03
2023-03-16T18:47:49.518Z,101450.72
2023-03-16T18:50:21.415Z,101453.38
2023-03-16T18:52:48.597Z,101461.44
2023-03-16T18:55:18.438Z,101454.78
2023-03-16T18:57:47.662Z,101452.84
2023-03-16T19:00:23.467Z,101455.56
2023-03-16T19:03:02.992Z,101466.44
2023-03-16T19:05:35.772Z,101468.03
2023-03-16T19:08:05.094Z,101464.50
2023-03-16T19:10:36.740Z,101436.31
2023-03-16T19:13:03.309Z,101416.25
2023-03-16T19:15:32.784Z,101425.66
2023-03-16T19:17:59.983Z,101432.56
2023-03-16T19:20:32.669Z,101447.72
2023-03-16T19:23:20.240Z,101446.88
2023-03-16T19:25:47.579Z,101439.84
2023-03-16T19:28:19.843Z,101426.97
2023-03-16T19:30:47.351Z,101434.41
2023-03-16T19:33:27.978Z,101446.59
2023-03-16T19:35:55.847Z,101444.59
2023-03-16T19:38:23.878Z,101426.34
2023-03-16T19:40:56.632Z,101417.81
2023-03-16T19:43:23.988Z,101409.75
2023-03-16T19:45:51.395Z,101416.25
2023-03-16T19:48:21.345Z,101420.91
2023-03-16T19:50:49.261Z,101410.13
2023-03-16T19:53:18.974Z,101421.69
2023-03-16T19:55:50.939Z,101413.75
2023-03-16T19:58:33.386Z,101415.56
2023-03-16T20:01:01.149Z,101404.91
2023-03-16T20:03:29.249Z,101407.31
2023-03-16T20:05:55.701Z,101414.28
2023-03-16T20:08:25.458Z,101410.44
2023-03-16T20:10:54.376Z,101412.66
2023-03-16T20:13:21.457Z,101412.66
2023-03-16T20:15:48.099Z,101402.28
2023-03-16T20:18:18.623Z,101408.41
2023-03-16T20:20:46.184Z,101411.13
2023-03-16T20:23:21.676Z,101404.09
2023-03-16T20:25:49.046Z,101399.47
2023-03-16T20:28:22.763Z,101400.84
2023-03-16T20:30:50.604Z,101395.34
2023-03-16T20:33:23.775Z,101393.22
2023-03-16T20:35:54.710Z,101400.78
2023-03-16T20:38:22.499Z,101406.22
2023-03-16T20:40:52.291Z,101411.75
2023-03-16T20:43:31.302Z,101403.69
2023-03-16T20:46:01.340Z,101401.97
2023-03-16T20:48:28.434Z,101407.31
2023-03-16T20:50:56.306Z,101401.19
2023-03-16T20:53:23.581Z,101392.81
2023-03-16T20:55:51.759Z,101389.91
2023-03-16T20:58:24.485Z,101379.44
2023-03-16T21:00:53.064Z,101363.53
2023-03-16T21:03:22.417Z,101358.78
2023-03-16T21:05:53.346Z,101373.19
2023-03-16T21:08:20.033Z,101365.22
2023-03-16T21:10:48.960Z,101365.53
2023-03-16T21:13:22.737Z,101363.50
2023-03-16T21:15:52.455Z,101358.59
2023-03-16T21:18:20.775Z,101355.25
2023-03-16T21:20:49.567Z,101340.44
2023-03-16T21:23:23.595Z,101338.19
2023-03-16T21:25:52.064Z,101326.34
2023-03-16T21:28:20.398Z,101325.31
2023-03-16T21:30:49.170Z,101324.22
2023-03-16T21:33:20.259Z,101312.59
2023-03-16T21:35:47.072Z,101310.56
2023-03-16T21:38:20.438Z,101315.38
2023-03-16T21:40:48.299Z,101293.97
2023-03-16T21:43:15.679Z,101287.94
2023-03-16T21:45:42.741Z,101294.97
2023-03-16T21:48:25.672Z,101291.53
2023-03-16T21:50:54.433Z,101289.31
2023-03-16T21:53:27.075Z,101282.19
2023-03-16T21:55:55.261Z,101270.31
2023-03-16T21:58:23.158Z,101271.63
2023-03-16T22:00:51.689Z,101266.88
2023-03-16T22:03:47.963Z,101268.00
2023-03-16T22:06:17.808Z,101262.16
2023-03-16T22:08:44.425Z,101277.03
2023-03-16T22:11:20.132Z,101266.47
2023-03-16T22:13:47.501Z,101261.47
2023-03-16T22:16:19.615Z,101252.28
2023-03-16T22:18:48.662Z,101237.41
2023-03-16T22:21:35.179Z,101242.81
2023-03-16T22:24:05.257Z,101241.78
2023-03-16T22:26:31.990Z,101243.31
2023-03-16T22:29:00.859Z,101240.75
2023-03-16T22:31:34.057Z,101240.28
2023-03-16T22:34:03.126Z,101233.13
2023-03-16T22:36:31.629Z,101233.97
2023-03-16T22:39:01.519Z,101225.59
2023-03-16T22:41:30.159Z,101235.78
2023-03-16T22:43:57.059Z,101229.84
2023-03-16T22:46:26.799Z,101227.78
2023-03-16T22:48:54.589Z,101230.22
2023-03-16T22:51:32.736Z,101230.22
2023-03-16T22:54:04.754Z,101226.06
2023-03-16T22:56:32.562Z,101227.56
2023-03-16T22:59:02.894Z,101224.31
2023-03-16T23:01:42.455Z,101212.41
2023-03-16T23:04:24.672Z,101208.81
2023-03-16T23:06:53.304Z,101198.22
2023-03-16T23:09:21.766Z,101189.41
2023-03-16T23:11:54.626Z,101189.59
2023-03-16T23:14:27.234Z,101183.47
2023-03-16T23:16:53.957Z,101184.28
2023-03-16T23:19:26.561Z,101180.97
2023-03-16T23:21:55.800Z,101175.41
2023-03-16T23:24:22.861Z,101170.59
2023-03-16T23:26:50.935Z,101162.38
2023-03-16T23:29:17.667Z,101173.22
2023-03-16T23:31:44.322Z,101173.31
2023-03-16T23:34:13.000Z,101161.47
2023-03-16T23:36:39.940Z,101163.47
2023-03-16T23:39:07.228Z,101169.69
2023-03-16T23:41:34.959Z,101160.75
2023-03-16T23:44:02.699Z,101167.78
2023-03-16T23:46:29.500Z,101164.41
2023-03-16T23:48:58.468Z,101154.75
2023-03-16T23:51:31.392Z,101152.53
2023-03-16T23:53:58.805Z,101154.94
2023-03-16T23:56:26.957Z,101155.91
2023-03-16T23:58:54.453Z,101148.59
